sensor_id;sensor_type;location;lat;lon;timestamp;P1;durP1;ratioP1;P2;durP2;ratioP2
32236;SDS011;18726;44.732;10.550;2022-12-29T00:02:38;57.10;;;37.35;;
32236;SDS011;18726;44.732;10.550;2022-12-29T00:05:41;50.53;;;34.83;;
32236;SDS011;18726;44.732;10.550;2022-12-29T00:08:45;54.72;;;37.05;;
32236;SDS011;18726;44.732;10.550;2022-12-29T00:11:48;61.65;;;38.65;;
32236;SDS011;18726;44.732;10.550;2022-12-29T00:14:53;57.05;;;37.28;;
32236;SDS011;18726;44.732;10.550;2022-12-29T00:18:16;50.15;;;31.58;;
32236;SDS011;18726;44.732;10.550;2022-12-29T00:21:20;48.17;;;31.52;;
32236;SDS011;18726;44.732;10.550;2022-12-29T00:24:44;43.92;;;31.48;;
32236;SDS011;18726;44.732;10.550;2022-12-29T00:28:09;66.22;;;42.28;;
32236;SDS011;18726;44.732;10.550;2022-12-29T00:31:32;67.18;;;43.20;;
32236;SDS011;18726;44.732;10.550;2022-12-29T00:34:54;69.90;;;42.67;;
32236;SDS011;18726;44.732;10.550;2022-12-29T00:38:13;59.83;;;38.63;;
32236;SDS011;18726;44.732;10.550;2022-12-29T00:41:36;70.03;;;39.63;;
32236;SDS011;18726;44.732;10.550;2022-12-29T00:44:58;59.67;;;37.70;;
32236;SDS011;18726;44.732;10.550;2022-12-29T00:48:02;52.03;;;32.85;;
32236;SDS011;18726;44.732;10.550;2022-12-29T00:51:07;50.55;;;32.45;;
32236;SDS011;18726;44.732;10.550;2022-12-29T00:54:12;57.00;;;36.55;;
32236;SDS011;18726;44.732;10.550;2022-12-29T00:57:15;50.95;;;35.63;;
32236;SDS011;18726;44.732;10.550;2022-12-29T01:00:19;52.40;;;34.25;;
32236;SDS011;18726;44.732;10.550;2022-12-29T01:03:23;59.80;;;36.10;;
32236;SDS011;18726;44.732;10.550;2022-12-29T01:06:27;64.85;;;41.88;;
32236;SDS011;18726;44.732;10.550;2022-12-29T01:09:31;58.22;;;37.25;;
32236;SDS011;18726;44.732;10.550;2022-12-29T01:12:53;45.95;;;30.67;;
32236;SDS011;18726;44.732;10.550;2022-12-29T01:15:57;57.70;;;37.22;;
32236;SDS011;18726;44.732;10.550;2022-12-29T01:19:01;55.58;;;37.92;;
32236;SDS011;18726;44.732;10.550;2022-12-29T01:22:06;56.85;;;37.08;;
32236;SDS011;18726;44.732;10.550;2022-12-29T01:25:10;79.40;;;52.22;;
32236;SDS011;18726;44.732;10.550;2022-12-29T01:28:15;76.13;;;48.88;;
32236;SDS011;18726;44.732;10.550;2022-12-29T01:31:18;75.35;;;46.00;;
32236;SDS011;18726;44.732;10.550;2022-12-29T01:34:23;51.53;;;34.63;;
32236;SDS011;18726;44.732;10.550;2022-12-29T01:37:26;58.28;;;37.08;;
32236;SDS011;18726;44.732;10.550;2022-12-29T01:40:30;38.83;;;30.38;;
32236;SDS011;18726;44.732;10.550;2022-12-29T01:46:49;64.03;;;37.83;;
32236;SDS011;18726;44.732;10.550;2022-12-29T01:49:55;65.40;;;42.83;;
32236;SDS011;18726;44.732;10.550;2022-12-29T01:53:02;51.30;;;36.55;;
32236;SDS011;18726;44.732;10.550;2022-12-29T01:59:22;45.60;;;29.73;;
32236;SDS011;18726;44.732;10.550;2022-12-29T02:02:30;38.95;;;29.27;;
32236;SDS011;18726;44.732;10.550;2022-12-29T02:05:45;50.88;;;33.80;;
32236;SDS011;18726;44.732;10.550;2022-12-29T02:08:53;49.47;;;31.55;;
32236;SDS011;18726;44.732;10.550;2022-12-29T02:11:59;64.88;;;39.65;;
32236;SDS011;18726;44.732;10.550;2022-12-29T02:15:03;49.97;;;34.78;;
32236;SDS011;18726;44.732;10.550;2022-12-29T02:38:41;53.22;;;34.05;;
32236;SDS011;18726;44.732;10.550;2022-12-29T02:45:26;56.80;;;34.90;;
32236;SDS011;18726;44.732;10.550;2022-12-29T02:48:43;73.82;;;48.53;;
32236;SDS011;18726;44.732;10.550;2022-12-29T02:52:01;52.13;;;34.85;;
32236;SDS011;18726;44.732;10.550;2022-12-29T02:55:10;52.38;;;30.88;;
32236;SDS011;18726;44.732;10.550;2022-12-29T02:58:16;51.83;;;35.70;;
32236;SDS011;18726;44.732;10.550;2022-12-29T03:11:25;42.92;;;31.45;;
32236;SDS011;18726;44.732;10.550;2022-12-29T03:15:00;54.47;;;36.17;;
32236;SDS011;18726;44.732;10.550;2022-12-29T03:21:48;49.55;;;33.13;;
32236;SDS011;18726;44.732;10.550;2022-12-29T03:28:35;48.38;;;33.35;;
32236;SDS011;18726;44.732;10.550;2022-12-29T03:31:53;54.88;;;35.35;;
32236;SDS011;18726;44.732;10.550;2022-12-29T03:34:58;47.70;;;32.08;;
32236;SDS011;18726;44.732;10.550;2022-12-29T03:38:11;48.10;;;31.50;;
32236;SDS011;18726;44.732;10.550;2022-12-29T03:41:20;58.58;;;38.00;;
32236;SDS011;18726;44.732;10.550;2022-12-29T03:44:33;51.92;;;35.00;;
32236;SDS011;18726;44.732;10.550;2022-12-29T03:47:40;59.92;;;37.00;;
32236;SDS011;18726;44.732;10.550;2022-12-29T03:50:44;48.15;;;33.08;;
32236;SDS011;18726;44.732;10.550;2022-12-29T03:53:48;51.97;;;32.17;;
32236;SDS011;18726;44.732;10.550;2022-12-29T03:56:52;64.72;;;39.30;;
32236;SDS011;18726;44.732;10.550;2022-12-29T04:00:06;71.55;;;45.92;;
32236;SDS011;18726;44.732;10.550;2022-12-29T04:03:25;61.03;;;35.58;;
32236;SDS011;18726;44.732;10.550;2022-12-29T04:06:28;72.50;;;42.90;;
32236;SDS011;18726;44.732;10.550;2022-12-29T04:09:38;65.00;;;41.58;;
32236;SDS011;18726;44.732;10.550;2022-12-29T04:12:43;77.93;;;48.42;;
32236;SDS011;18726;44.732;10.550;2022-12-29T04:15:49;85.28;;;52.67;;
32236;SDS011;18726;44.732;10.550;2022-12-29T04:18:53;72.00;;;46.33;;
32236;SDS011;18726;44.732;10.550;2022-12-29T04:21:57;55.45;;;37.17;;
32236;SDS011;18726;44.732;10.550;2022-12-29T04:25:01;62.13;;;39.00;;
32236;SDS011;18726;44.732;10.550;2022-12-29T04:28:04;56.72;;;39.25;;
32236;SDS011;18726;44.732;10.550;2022-12-29T04:31:30;68.93;;;43.65;;
32236;SDS011;18726;44.732;10.550;2022-12-29T04:34:34;76.95;;;43.92;;
32236;SDS011;18726;44.732;10.550;2022-12-29T04:37:37;67.55;;;42.63;;
32236;SDS011;18726;44.732;10.550;2022-12-29T04:40:41;78.95;;;44.00;;
32236;SDS011;18726;44.732;10.550;2022-12-29T04:43:47;78.63;;;46.58;;
32236;SDS011;18726;44.732;10.550;2022-12-29T04:47:14;75.90;;;50.65;;
32236;SDS011;18726;44.732;10.550;2022-12-29T04:50:22;73.63;;;45.00;;
32236;SDS011;18726;44.732;10.550;2022-12-29T04:53:33;83.00;;;48.13;;
32236;SDS011;18726;44.732;10.550;2022-12-29T04:56:37;84.35;;;51.33;;
32236;SDS011;18726;44.732;10.550;2022-12-29T04:59:40;87.00;;;52.80;;
32236;SDS011;18726;44.732;10.550;2022-12-29T05:02:45;96.80;;;60.05;;
32236;SDS011;18726;44.732;10.550;2022-12-29T05:05:52;75.13;;;43.78;;
32236;SDS011;18726;44.732;10.550;2022-12-29T05:08:57;67.97;;;43.72;;
32236;SDS011;18726;44.732;10.550;2022-12-29T05:12:01;79.45;;;43.75;;
32236;SDS011;18726;44.732;10.550;2022-12-29T05:15:07;66.43;;;40.67;;
32236;SDS011;18726;44.732;10.550;2022-12-29T05:18:11;75.65;;;47.20;;
32236;SDS011;18726;44.732;10.550;2022-12-29T05:21:15;68.10;;;45.00;;
32236;SDS011;18726;44.732;10.550;2022-12-29T05:24:21;97.50;;;56.50;;
32236;SDS011;18726;44.732;10.550;2022-12-29T05:27:25;75.50;;;44.72;;
32236;SDS011;18726;44.732;10.550;2022-12-29T05:30:37;65.05;;;42.80;;
32236;SDS011;18726;44.732;10.550;2022-12-29T05:33:41;65.63;;;40.20;;
32236;SDS011;18726;44.732;10.550;2022-12-29T05:36:45;58.83;;;40.33;;
32236;SDS011;18726;44.732;10.550;2022-12-29T05:39:50;71.10;;;41.65;;
32236;SDS011;18726;44.732;10.550;2022-12-29T05:42:54;73.63;;;44.10;;
32236;SDS011;18726;44.732;10.550;2022-12-29T05:46:10;64.57;;;39.67;;
32236;SDS011;18726;44.732;10.550;2022-12-29T05:49:33;75.57;;;44.30;;
32236;SDS011;18726;44.732;10.550;2022-12-29T05:53:02;74.28;;;45.20;;
32236;SDS011;18726;44.732;10.550;2022-12-29T05:56:06;81.22;;;49.17;;
32236;SDS011;18726;44.732;10.550;2022-12-29T05:59:10;82.55;;;50.22;;
32236;SDS011;18726;44.732;10.550;2022-12-29T06:02:14;74.95;;;44.20;;
32236;SDS011;18726;44.732;10.550;2022-12-29T06:05:18;75.07;;;45.28;;
32236;SDS011;18726;44.732;10.550;2022-12-29T06:08:22;79.90;;;50.00;;
32236;SDS011;18726;44.732;10.550;2022-12-29T06:11:26;71.90;;;43.40;;
32236;SDS011;18726;44.732;10.550;2022-12-29T06:14:34;80.40;;;48.20;;
32236;SDS011;18726;44.732;10.550;2022-12-29T06:17:38;71.15;;;43.72;;
32236;SDS011;18726;44.732;10.550;2022-12-29T06:20:42;85.35;;;46.90;;
32236;SDS011;18726;44.732;10.550;2022-12-29T06:23:46;77.55;;;48.47;;
32236;SDS011;18726;44.732;10.550;2022-12-29T06:26:49;84.57;;;47.63;;
32236;SDS011;18726;44.732;10.550;2022-12-29T06:29:54;58.30;;;35.75;;
32236;SDS011;18726;44.732;10.550;2022-12-29T06:32:58;73.45;;;44.10;;
32236;SDS011;18726;44.732;10.550;2022-12-29T06:36:02;91.82;;;51.95;;
32236;SDS011;18726;44.732;10.550;2022-12-29T06:39:07;71.47;;;45.53;;
32236;SDS011;18726;44.732;10.550;2022-12-29T06:42:12;74.00;;;46.50;;
32236;SDS011;18726;44.732;10.550;2022-12-29T06:45:15;63.45;;;43.53;;
32236;SDS011;18726;44.732;10.550;2022-12-29T06:48:19;66.43;;;42.75;;
32236;SDS011;18726;44.732;10.550;2022-12-29T06:51:23;99.00;;;59.00;;
32236;SDS011;18726;44.732;10.550;2022-12-29T06:54:26;64.85;;;41.72;;
32236;SDS011;18726;44.732;10.550;2022-12-29T06:57:30;90.88;;;55.95;;
32236;SDS011;18726;44.732;10.550;2022-12-29T07:00:34;103.93;;;59.15;;
32236;SDS011;18726;44.732;10.550;2022-12-29T07:03:38;102.30;;;58.20;;
32236;SDS011;18726;44.732;10.550;2022-12-29T07:06:45;111.57;;;61.90;;
32236;SDS011;18726;44.732;10.550;2022-12-29T07:09:48;120.20;;;67.90;;
32236;SDS011;18726;44.732;10.550;2022-12-29T07:12:52;93.75;;;52.15;;
32236;SDS011;18726;44.732;10.550;2022-12-29T07:15:55;78.88;;;45.33;;
32236;SDS011;18726;44.732;10.550;2022-12-29T07:18:59;60.78;;;40.05;;
32236;SDS011;18726;44.732;10.550;2022-12-29T07:22:03;104.38;;;55.95;;
32236;SDS011;18726;44.732;10.550;2022-12-29T07:25:07;104.28;;;61.80;;
32236;SDS011;18726;44.732;10.550;2022-12-29T07:28:11;109.10;;;63.50;;
32236;SDS011;18726;44.732;10.550;2022-12-29T07:31:16;93.50;;;53.55;;
32236;SDS011;18726;44.732;10.550;2022-12-29T07:34:21;91.40;;;53.95;;
32236;SDS011;18726;44.732;10.550;2022-12-29T07:37:25;74.32;;;47.00;;
32236;SDS011;18726;44.732;10.550;2022-12-29T07:40:29;80.85;;;47.70;;
32236;SDS011;18726;44.732;10.550;2022-12-29T07:43:33;105.57;;;60.80;;
32236;SDS011;18726;44.732;10.550;2022-12-29T07:46:56;100.90;;;59.60;;
32236;SDS011;18726;44.732;10.550;2022-12-29T07:49:59;116.63;;;66.03;;
32236;SDS011;18726;44.732;10.550;2022-12-29T07:53:03;84.40;;;52.53;;
32236;SDS011;18726;44.732;10.550;2022-12-29T07:56:07;108.35;;;57.80;;
32236;SDS011;18726;44.732;10.550;2022-12-29T07:59:11;83.25;;;49.42;;
32236;SDS011;18726;44.732;10.550;2022-12-29T08:02:15;71.60;;;42.85;;
32236;SDS011;18726;44.732;10.550;2022-12-29T08:05:18;72.38;;;40.13;;
32236;SDS011;18726;44.732;10.550;2022-12-29T08:08:22;73.07;;;42.50;;
32236;SDS011;18726;44.732;10.550;2022-12-29T08:11:26;79.38;;;46.20;;
32236;SDS011;18726;44.732;10.550;2022-12-29T08:14:29;66.60;;;40.80;;
32236;SDS011;18726;44.732;10.550;2022-12-29T08:17:33;70.13;;;44.17;;
32236;SDS011;18726;44.732;10.550;2022-12-29T08:20:37;101.10;;;59.28;;
32236;SDS011;18726;44.732;10.550;2022-12-29T08:23:41;101.57;;;59.13;;
32236;SDS011;18726;44.732;10.550;2022-12-29T08:26:44;106.35;;;60.88;;
32236;SDS011;18726;44.732;10.550;2022-12-29T08:29:48;111.38;;;66.72;;
32236;SDS011;18726;44.732;10.550;2022-12-29T08:32:52;114.18;;;61.88;;
32236;SDS011;18726;44.732;10.550;2022-12-29T08:36:03;103.93;;;59.75;;
32236;SDS011;18726;44.732;10.550;2022-12-29T08:39:08;82.38;;;50.47;;
32236;SDS011;18726;44.732;10.550;2022-12-29T08:42:12;107.85;;;58.55;;
32236;SDS011;18726;44.732;10.550;2022-12-29T08:45:16;97.63;;;55.63;;
32236;SDS011;18726;44.732;10.550;2022-12-29T08:48:20;108.00;;;57.88;;
32236;SDS011;18726;44.732;10.550;2022-12-29T08:51:25;84.93;;;51.17;;
32236;SDS011;18726;44.732;10.550;2022-12-29T08:54:29;93.75;;;55.47;;
32236;SDS011;18726;44.732;10.550;2022-12-29T08:57:33;89.97;;;60.38;;
32236;SDS011;18726;44.732;10.550;2022-12-29T09:00:42;105.35;;;61.35;;
32236;SDS011;18726;44.732;10.550;2022-12-29T09:03:46;111.03;;;66.25;;
32236;SDS011;18726;44.732;10.550;2022-12-29T09:06:50;119.28;;;70.78;;
32236;SDS011;18726;44.732;10.550;2022-12-29T09:09:54;122.22;;;75.93;;
32236;SDS011;18726;44.732;10.550;2022-12-29T09:12:58;121.57;;;68.20;;
32236;SDS011;18726;44.732;10.550;2022-12-29T09:16:03;106.40;;;63.83;;
32236;SDS011;18726;44.732;10.550;2022-12-29T09:19:07;106.82;;;63.50;;
32236;SDS011;18726;44.732;10.550;2022-12-29T09:22:10;107.82;;;62.17;;
32236;SDS011;18726;44.732;10.550;2022-12-29T09:25:14;97.53;;;56.60;;
32236;SDS011;18726;44.732;10.550;2022-12-29T09:28:19;96.10;;;59.72;;
32236;SDS011;18726;44.732;10.550;2022-12-29T09:31:23;105.18;;;61.03;;
32236;SDS011;18726;44.732;10.550;2022-12-29T09:34:28;108.65;;;64.72;;
32236;SDS011;18726;44.732;10.550;2022-12-29T09:37:32;89.50;;;59.00;;
32236;SDS011;18726;44.732;10.550;2022-12-29T09:40:35;94.30;;;58.28;;
32236;SDS011;18726;44.732;10.550;2022-12-29T09:46:59;104.82;;;62.15;;
32236;SDS011;18726;44.732;10.550;2022-12-29T09:56:41;80.85;;;53.47;;
32236;SDS011;18726;44.732;10.550;2022-12-29T09:59:46;92.85;;;55.90;;
32236;SDS011;18726;44.732;10.550;2022-12-29T10:03:10;77.57;;;52.75;;
32236;SDS011;18726;44.732;10.550;2022-12-29T10:06:23;92.13;;;55.40;;
32236;SDS011;18726;44.732;10.550;2022-12-29T10:26:23;84.60;;;52.17;;
32236;SDS011;18726;44.732;10.550;2022-12-29T10:29:36;80.15;;;48.00;;
32236;SDS011;18726;44.732;10.550;2022-12-29T10:33:05;97.55;;;53.45;;
32236;SDS011;18726;44.732;10.550;2022-12-29T10:39:46;82.35;;;50.72;;
32236;SDS011;18726;44.732;10.550;2022-12-29T10:42:54;79.90;;;50.85;;
32236;SDS011;18726;44.732;10.550;2022-12-29T10:46:10;85.85;;;57.03;;
32236;SDS011;18726;44.732;10.550;2022-12-29T10:49:27;82.82;;;53.72;;
32236;SDS011;18726;44.732;10.550;2022-12-29T10:52:33;78.90;;;51.50;;
32236;SDS011;18726;44.732;10.550;2022-12-29T10:55:41;83.07;;;52.58;;
32236;SDS011;18726;44.732;10.550;2022-12-29T10:58:45;90.75;;;53.85;;
32236;SDS011;18726;44.732;10.550;2022-12-29T11:05:29;74.90;;;46.92;;
32236;SDS011;18726;44.732;10.550;2022-12-29T11:08:41;71.75;;;45.55;;
32236;SDS011;18726;44.732;10.550;2022-12-29T11:12:00;56.35;;;41.85;;
32236;SDS011;18726;44.732;10.550;2022-12-29T11:18:56;69.60;;;43.17;;
32236;SDS011;18726;44.732;10.550;2022-12-29T11:21:41;70.57;;;42.38;;
32236;SDS011;18726;44.732;10.550;2022-12-29T11:24:45;63.30;;;40.03;;
32236;SDS011;18726;44.732;10.550;2022-12-29T11:31:01;64.90;;;43.43;;
32236;SDS011;18726;44.732;10.550;2022-12-29T11:34:07;66.25;;;43.60;;
32236;SDS011;18726;44.732;10.550;2022-12-29T11:37:16;69.60;;;45.05;;
32236;SDS011;18726;44.732;10.550;2022-12-29T11:40:28;77.68;;;48.28;;
32236;SDS011;18726;44.732;10.550;2022-12-29T11:43:33;65.10;;;42.30;;
32236;SDS011;18726;44.732;10.550;2022-12-29T11:46:40;61.40;;;41.67;;
32236;SDS011;18726;44.732;10.550;2022-12-29T11:49:51;70.32;;;44.58;;
32236;SDS011;18726;44.732;10.550;2022-12-29T11:53:01;71.22;;;43.70;;
32236;SDS011;18726;44.732;10.550;2022-12-29T11:56:13;68.03;;;43.83;;
32236;SDS011;18726;44.732;10.550;2022-12-29T12:05:45;62.88;;;41.13;;
32236;SDS011;18726;44.732;10.550;2022-12-29T12:08:56;70.65;;;40.38;;
32236;SDS011;18726;44.732;10.550;2022-12-29T12:12:05;77.45;;;47.40;;
32236;SDS011;18726;44.732;10.550;2022-12-29T12:18:32;64.47;;;39.50;;
32236;SDS011;18726;44.732;10.550;2022-12-29T12:21:43;68.95;;;40.10;;
32236;SDS011;18726;44.732;10.550;2022-12-29T12:31:44;68.72;;;41.92;;
32236;SDS011;18726;44.732;10.550;2022-12-29T12:34:46;64.43;;;42.50;;
32236;SDS011;18726;44.732;10.550;2022-12-29T12:37:55;71.43;;;45.78;;
32236;SDS011;18726;44.732;10.550;2022-12-29T12:41:16;67.55;;;42.35;;
32236;SDS011;18726;44.732;10.550;2022-12-29T12:58:52;117.97;;;69.63;;
32236;SDS011;18726;44.732;10.550;2022-12-29T13:08:58;108.03;;;62.63;;
32236;SDS011;18726;44.732;10.550;2022-12-29T13:18:59;108.70;;;70.20;;
32236;SDS011;18726;44.732;10.550;2022-12-29T13:25:41;102.78;;;62.53;;
32236;SDS011;18726;44.732;10.550;2022-12-29T13:42:34;99.13;;;60.88;;
32236;SDS011;18726;44.732;10.550;2022-12-29T13:45:37;94.00;;;55.75;;
32236;SDS011;18726;44.732;10.550;2022-12-29T13:48:46;115.20;;;63.30;;
32236;SDS011;18726;44.732;10.550;2022-12-29T13:51:56;119.35;;;69.55;;
32236;SDS011;18726;44.732;10.550;2022-12-29T13:55:07;130.77;;;70.15;;
32236;SDS011;18726;44.732;10.550;2022-12-29T14:01:50;104.47;;;59.85;;
32236;SDS011;18726;44.732;10.550;2022-12-29T14:05:01;97.65;;;57.53;;
32236;SDS011;18726;44.732;10.550;2022-12-29T14:08:14;123.10;;;65.47;;
32236;SDS011;18726;44.732;10.550;2022-12-29T14:14:34;92.63;;;53.03;;
32236;SDS011;18726;44.732;10.550;2022-12-29T14:24:38;114.57;;;62.35;;
32236;SDS011;18726;44.732;10.550;2022-12-29T14:27:44;105.20;;;65.25;;
32236;SDS011;18726;44.732;10.550;2022-12-29T14:30:56;101.53;;;60.85;;
32236;SDS011;18726;44.732;10.550;2022-12-29T14:37:25;127.38;;;67.35;;
32236;SDS011;18726;44.732;10.550;2022-12-29T14:40:31;137.35;;;81.10;;
32236;SDS011;18726;44.732;10.550;2022-12-29T14:43:36;118.40;;;68.00;;
32236;SDS011;18726;44.732;10.550;2022-12-29T14:53:42;104.90;;;58.17;;
32236;SDS011;18726;44.732;10.550;2022-12-29T14:56:47;91.38;;;54.83;;
32236;SDS011;18726;44.732;10.550;2022-12-29T14:59:52;99.88;;;59.63;;
32236;SDS011;18726;44.732;10.550;2022-12-29T15:03:03;89.60;;;53.08;;
32236;SDS011;18726;44.732;10.550;2022-12-29T15:06:23;96.70;;;52.70;;
32236;SDS011;18726;44.732;10.550;2022-12-29T15:09:33;87.68;;;51.00;;
32236;SDS011;18726;44.732;10.550;2022-12-29T15:12:42;90.07;;;54.88;;
32236;SDS011;18726;44.732;10.550;2022-12-29T15:15:52;102.45;;;55.92;;
32236;SDS011;18726;44.732;10.550;2022-12-29T15:18:56;100.35;;;61.70;;
32236;SDS011;18726;44.732;10.550;2022-12-29T15:22:01;101.07;;;65.00;;
32236;SDS011;18726;44.732;10.550;2022-12-29T15:25:12;100.47;;;59.10;;
32236;SDS011;18726;44.732;10.550;2022-12-29T15:28:19;108.68;;;59.45;;
32236;SDS011;18726;44.732;10.550;2022-12-29T15:31:24;110.43;;;57.85;;
32236;SDS011;18726;44.732;10.550;2022-12-29T15:34:29;117.95;;;64.75;;
32236;SDS011;18726;44.732;10.550;2022-12-29T15:37:34;134.20;;;69.03;;
32236;SDS011;18726;44.732;10.550;2022-12-29T15:40:41;104.45;;;57.45;;
32236;SDS011;18726;44.732;10.550;2022-12-29T15:50:26;150.88;;;76.18;;
32236;SDS011;18726;44.732;10.550;2022-12-29T15:53:32;136.32;;;70.38;;
32236;SDS011;18726;44.732;10.550;2022-12-29T15:56:37;144.43;;;72.93;;
32236;SDS011;18726;44.732;10.550;2022-12-29T15:59:44;146.20;;;75.15;;
32236;SDS011;18726;44.732;10.550;2022-12-29T16:02:51;135.65;;;74.40;;
32236;SDS011;18726;44.732;10.550;2022-12-29T16:05:58;147.88;;;75.75;;
32236;SDS011;18726;44.732;10.550;2022-12-29T16:09:15;138.85;;;73.07;;
32236;SDS011;18726;44.732;10.550;2022-12-29T16:12:21;138.15;;;71.70;;
32236;SDS011;18726;44.732;10.550;2022-12-29T16:15:46;145.75;;;73.30;;
32236;SDS011;18726;44.732;10.550;2022-12-29T16:18:52;149.35;;;76.20;;
32236;SDS011;18726;44.732;10.550;2022-12-29T16:21:56;132.88;;;67.40;;
32236;SDS011;18726;44.732;10.550;2022-12-29T16:25:03;166.93;;;92.47;;
32236;SDS011;18726;44.732;10.550;2022-12-29T16:28:20;266.05;;;140.52;;
32236;SDS011;18726;44.732;10.550;2022-12-29T16:31:49;174.20;;;96.57;;
32236;SDS011;18726;44.732;10.550;2022-12-29T16:38:18;145.45;;;77.13;;
32236;SDS011;18726;44.732;10.550;2022-12-29T16:41:32;132.45;;;76.15;;
32236;SDS011;18726;44.732;10.550;2022-12-29T16:44:36;204.75;;;135.15;;
32236;SDS011;18726;44.732;10.550;2022-12-29T16:47:40;112.50;;;67.95;;
32236;SDS011;18726;44.732;10.550;2022-12-29T16:50:44;115.40;;;65.78;;
32236;SDS011;18726;44.732;10.550;2022-12-29T16:53:52;140.60;;;70.80;;
32236;SDS011;18726;44.732;10.550;2022-12-29T16:56:57;187.23;;;103.95;;
32236;SDS011;18726;44.732;10.550;2022-12-29T17:00:06;136.23;;;79.22;;
32236;SDS011;18726;44.732;10.550;2022-12-29T17:03:11;130.18;;;70.57;;
32236;SDS011;18726;44.732;10.550;2022-12-29T17:06:16;147.25;;;77.43;;
32236;SDS011;18726;44.732;10.550;2022-12-29T17:09:22;126.25;;;69.07;;
32236;SDS011;18726;44.732;10.550;2022-12-29T17:12:29;163.60;;;104.53;;
32236;SDS011;18726;44.732;10.550;2022-12-29T17:15:33;113.38;;;71.13;;
32236;SDS011;18726;44.732;10.550;2022-12-29T17:18:37;119.30;;;66.32;;
32236;SDS011;18726;44.732;10.550;2022-12-29T17:21:41;131.90;;;70.47;;
32236;SDS011;18726;44.732;10.550;2022-12-29T17:24:45;111.82;;;64.78;;
32236;SDS011;18726;44.732;10.550;2022-12-29T17:31:02;115.60;;;61.50;;
32236;SDS011;18726;44.732;10.550;2022-12-29T17:34:10;98.40;;;57.45;;
32236;SDS011;18726;44.732;10.550;2022-12-29T17:40:28;122.30;;;63.25;;
32236;SDS011;18726;44.732;10.550;2022-12-29T17:43:34;100.60;;;59.33;;
32236;SDS011;18726;44.732;10.550;2022-12-29T17:46:38;112.72;;;64.13;;
32236;SDS011;18726;44.732;10.550;2022-12-29T17:49:41;131.93;;;65.80;;
32236;SDS011;18726;44.732;10.550;2022-12-29T17:52:58;120.78;;;64.35;;
32236;SDS011;18726;44.732;10.550;2022-12-29T17:56:05;111.70;;;64.75;;
32236;SDS011;18726;44.732;10.550;2022-12-29T17:59:11;109.47;;;63.92;;
32236;SDS011;18726;44.732;10.550;2022-12-29T18:02:29;105.85;;;64.38;;
32236;SDS011;18726;44.732;10.550;2022-12-29T18:05:34;115.20;;;63.42;;
32236;SDS011;18726;44.732;10.550;2022-12-29T18:08:38;91.88;;;58.50;;
32236;SDS011;18726;44.732;10.550;2022-12-29T18:11:43;98.55;;;56.95;;
32236;SDS011;18726;44.732;10.550;2022-12-29T18:14:48;85.57;;;52.55;;
32236;SDS011;18726;44.732;10.550;2022-12-29T18:17:53;92.95;;;52.67;;
32236;SDS011;18726;44.732;10.550;2022-12-29T18:21:02;91.57;;;55.92;;
32236;SDS011;18726;44.732;10.550;2022-12-29T18:24:08;94.03;;;56.92;;
32236;SDS011;18726;44.732;10.550;2022-12-29T18:27:16;89.50;;;52.47;;
32236;SDS011;18726;44.732;10.550;2022-12-29T18:30:21;77.90;;;48.55;;
32236;SDS011;18726;44.732;10.550;2022-12-29T18:33:25;93.28;;;53.90;;
32236;SDS011;18726;44.732;10.550;2022-12-29T18:36:29;97.03;;;64.30;;
32236;SDS011;18726;44.732;10.550;2022-12-29T18:39:33;111.05;;;73.57;;
32236;SDS011;18726;44.732;10.550;2022-12-29T18:42:37;112.25;;;74.00;;
32236;SDS011;18726;44.732;10.550;2022-12-29T18:45:41;90.70;;;54.75;;
32236;SDS011;18726;44.732;10.550;2022-12-29T18:48:44;79.95;;;49.78;;
32236;SDS011;18726;44.732;10.550;2022-12-29T18:51:48;85.35;;;54.10;;
32236;SDS011;18726;44.732;10.550;2022-12-29T18:54:52;91.50;;;58.95;;
32236;SDS011;18726;44.732;10.550;2022-12-29T18:57:57;166.15;;;138.75;;
32236;SDS011;18726;44.732;10.550;2022-12-29T19:01:01;256.45;;;200.40;;
32236;SDS011;18726;44.732;10.550;2022-12-29T19:04:05;173.25;;;128.82;;
32236;SDS011;18726;44.732;10.550;2022-12-29T19:07:10;104.32;;;72.40;;
32236;SDS011;18726;44.732;10.550;2022-12-29T19:10:14;84.60;;;49.50;;
32236;SDS011;18726;44.732;10.550;2022-12-29T19:13:19;98.05;;;62.55;;
32236;SDS011;18726;44.732;10.550;2022-12-29T19:16:31;85.43;;;52.80;;
32236;SDS011;18726;44.732;10.550;2022-12-29T19:19:35;113.63;;;65.90;;
32236;SDS011;18726;44.732;10.550;2022-12-29T19:22:40;89.45;;;57.17;;
32236;SDS011;18726;44.732;10.550;2022-12-29T19:25:43;94.00;;;57.60;;
32236;SDS011;18726;44.732;10.550;2022-12-29T19:28:48;89.47;;;55.25;;
32236;SDS011;18726;44.732;10.550;2022-12-29T19:31:52;174.30;;;110.13;;
32236;SDS011;18726;44.732;10.550;2022-12-29T19:34:56;97.43;;;64.38;;
32236;SDS011;18726;44.732;10.550;2022-12-29T19:37:59;78.50;;;50.47;;
32236;SDS011;18726;44.732;10.550;2022-12-29T19:41:05;80.60;;;47.40;;
32236;SDS011;18726;44.732;10.550;2022-12-29T19:44:09;81.82;;;49.80;;
32236;SDS011;18726;44.732;10.550;2022-12-29T19:47:13;93.93;;;56.33;;
32236;SDS011;18726;44.732;10.550;2022-12-29T19:50:17;94.55;;;59.20;;
32236;SDS011;18726;44.732;10.550;2022-12-29T19:53:21;103.72;;;59.35;;
32236;SDS011;18726;44.732;10.550;2022-12-29T19:56:25;92.55;;;56.50;;
32236;SDS011;18726;44.732;10.550;2022-12-29T19:59:29;83.13;;;50.63;;
32236;SDS011;18726;44.732;10.550;2022-12-29T20:02:32;106.10;;;59.80;;
32236;SDS011;18726;44.732;10.550;2022-12-29T20:05:37;102.90;;;58.00;;
32236;SDS011;18726;44.732;10.550;2022-12-29T20:08:41;104.95;;;58.75;;
32236;SDS011;18726;44.732;10.550;2022-12-29T20:11:45;75.32;;;46.30;;
32236;SDS011;18726;44.732;10.550;2022-12-29T20:14:49;76.45;;;45.33;;
32236;SDS011;18726;44.732;10.550;2022-12-29T20:17:54;102.20;;;57.53;;
32236;SDS011;18726;44.732;10.550;2022-12-29T20:21:07;124.78;;;69.78;;
32236;SDS011;18726;44.732;10.550;2022-12-29T20:24:17;108.63;;;63.67;;
32236;SDS011;18726;44.732;10.550;2022-12-29T20:27:21;115.07;;;66.38;;
32236;SDS011;18726;44.732;10.550;2022-12-29T20:30:24;93.65;;;56.40;;
32236;SDS011;18726;44.732;10.550;2022-12-29T20:33:29;101.35;;;53.92;;
32236;SDS011;18726;44.732;10.550;2022-12-29T20:36:35;116.85;;;65.80;;
32236;SDS011;18726;44.732;10.550;2022-12-29T20:39:42;107.93;;;66.85;;
32236;SDS011;18726;44.732;10.550;2022-12-29T20:42:46;138.18;;;80.57;;
32236;SDS011;18726;44.732;10.550;2022-12-29T20:45:50;97.75;;;61.13;;
32236;SDS011;18726;44.732;10.550;2022-12-29T20:48:54;84.82;;;50.10;;
32236;SDS011;18726;44.732;10.550;2022-12-29T20:51:58;105.32;;;57.80;;
32236;SDS011;18726;44.732;10.550;2022-12-29T20:55:02;86.60;;;53.35;;
32236;SDS011;18726;44.732;10.550;2022-12-29T20:58:06;96.53;;;58.47;;
32236;SDS011;18726;44.732;10.550;2022-12-29T21:01:10;96.75;;;58.00;;
32236;SDS011;18726;44.732;10.550;2022-12-29T21:04:17;85.82;;;53.83;;